Terminal Aerodrome Forecast
Issued by NWS Green Bay, WI

Current Version | Previous Version | Text Only | Print | Product List | Glossary On
Versions: 1 2 3 4 5 6 7 8 9 10 11 12 13 14 15 16
000
FTUS43 KGRB 231138
TAFGRB
TAF
KGRB 231138Z 2312/2412 36010G14KT P6SM SCT012 BKN025
      TEMPO 2312/2316 BKN012
     FM231800 02009G15KT P6SM SCT015 BKN040
     FM240600 04012G21KT 6SM -SN OVC015
     FM240900 06017G27KT 2SM -SNPL OVC010
     FM241000 06017G28KT 2SM -FZRASN OVC008=

USA.gov is the U.S. government's official web portal to all federal, state and local government web resources and services.